sensor_id;sensor_type;location;lat;lon;timestamp;pressure;altitude;pressure_sealevel;temperature;humidity
14293;BME280;62290;59.420;17.842;2023-04-02T00:02:30;101797.56;;;26.07;13.89
14293;BME280;62290;59.420;17.842;2023-04-02T00:05:30;101797.84;;;26.04;13.63
14293;BME280;62290;59.420;17.842;2023-04-02T00:08:27;101799.06;;;26.00;13.63
14293;BME280;62290;59.420;17.842;2023-04-02T00:10:58;101795.63;;;25.98;13.62
14293;BME280;62290;59.420;17.842;2023-04-02T00:13:34;101794.75;;;25.98;13.96
14293;BME280;62290;59.420;17.842;2023-04-02T00:16:06;101812.06;;;25.95;13.58
14293;BME280;62290;59.420;17.842;2023-04-02T00:18:39;101813.91;;;25.95;13.57
14293;BME280;62290;59.420;17.842;2023-04-02T00:21:12;101810.97;;;25.87;14.02
14293;BME280;62290;59.420;17.842;2023-04-02T00:23:44;101806.66;;;25.84;13.73
14293;BME280;62290;59.420;17.842;2023-04-02T00:26:23;101817.97;;;25.89;13.93
14293;BME280;62290;59.420;17.842;2023-04-02T00:28:54;101824.38;;;25.88;13.59
14293;BME280;62290;59.420;17.842;2023-04-02T00:31:22;101833.44;;;25.87;14.02
14293;BME280;62290;59.420;17.842;2023-04-02T00:33:52;101833.56;;;25.86;13.63
14293;BME280;62290;59.420;17.842;2023-04-02T00:36:23;101832.84;;;25.84;13.90
14293;BME280;62290;59.420;17.842;2023-04-02T00:38:52;101843.50;;;25.85;13.96
14293;BME280;62290;59.420;17.842;2023-04-02T00:41:25;101842.78;;;25.83;13.99
14293;BME280;62290;59.420;17.842;2023-04-02T00:43:57;101846.22;;;25.85;13.83
14293;BME280;62290;59.420;17.842;2023-04-02T00:46:29;101853.34;;;25.86;13.50
14293;BME280;62290;59.420;17.842;2023-04-02T00:49:02;101854.44;;;25.84;13.96
14293;BME280;62290;59.420;17.842;2023-04-02T00:51:35;101835.63;;;25.71;13.80
14293;BME280;62290;59.420;17.842;2023-04-02T00:54:05;101866.09;;;25.84;14.12
14293;BME280;62290;59.420;17.842;2023-04-02T00:56:38;101869.53;;;25.86;13.76
14293;BME280;62290;59.420;17.842;2023-04-02T00:59:18;101872.34;;;25.85;13.69
14293;BME280;62290;59.420;17.842;2023-04-02T01:01:51;101881.31;;;25.85;13.66
14293;BME280;62290;59.420;17.842;2023-04-02T01:04:27;101870.13;;;25.78;13.81
14293;BME280;62290;59.420;17.842;2023-04-02T01:06:57;101886.84;;;25.84;13.85
14293;BME280;62290;59.420;17.842;2023-04-02T01:09:37;101885.84;;;25.85;14.03
14293;BME280;62290;59.420;17.842;2023-04-02T01:12:23;101897.53;;;25.85;13.94
14293;BME280;62290;59.420;17.842;2023-04-02T01:15:06;101900.34;;;25.84;13.89
14293;BME280;62290;59.420;17.842;2023-04-02T01:17:45;101900.34;;;25.84;13.64
14293;BME280;62290;59.420;17.842;2023-04-02T01:20:47;101902.19;;;25.83;13.58
14293;BME280;62290;59.420;17.842;2023-04-02T01:23:25;101907.69;;;25.82;13.77
14293;BME280;62290;59.420;17.842;2023-04-02T01:26:02;101917.53;;;25.83;14.01
14293;BME280;62290;59.420;17.842;2023-04-02T01:28:44;101920.38;;;25.81;13.59
14293;BME280;62290;59.420;17.842;2023-04-02T01:31:16;101919.59;;;25.79;13.98
14293;BME280;62290;59.420;17.842;2023-04-02T01:33:44;101922.28;;;25.79;13.61
14293;BME280;62290;59.420;17.842;2023-04-02T01:36:17;101924.91;;;25.81;14.07
14293;BME280;62290;59.420;17.842;2023-04-02T01:38:52;101927.59;;;25.81;13.66
14293;BME280;62290;59.420;17.842;2023-04-02T01:41:29;101932.13;;;25.80;13.67
14293;BME280;62290;59.420;17.842;2023-04-02T01:44:04;101932.22;;;25.78;14.03
14293;BME280;62290;59.420;17.842;2023-04-02T01:46:37;101936.81;;;25.78;13.95
14293;BME280;62290;59.420;17.842;2023-04-02T01:49:11;101939.50;;;25.78;13.85
14293;BME280;62290;59.420;17.842;2023-04-02T01:51:42;101933.09;;;25.79;14.08
14293;BME280;62290;59.420;17.842;2023-04-02T01:54:15;101933.69;;;25.71;13.89
14293;BME280;62290;59.420;17.842;2023-04-02T01:56:44;101949.31;;;25.79;13.95
14293;BME280;62290;59.420;17.842;2023-04-02T01:59:16;101947.38;;;25.81;13.73
14293;BME280;62290;59.420;17.842;2023-04-02T02:01:51;101944.78;;;25.80;13.58
14293;BME280;62290;59.420;17.842;2023-04-02T02:04:22;101953.38;;;25.85;13.97
14293;BME280;62290;59.420;17.842;2023-04-02T02:06:50;101957.56;;;25.89;13.59
14293;BME280;62290;59.420;17.842;2023-04-02T02:09:20;101940.22;;;25.80;13.57
14293;BME280;62290;59.420;17.842;2023-04-02T02:11:50;101967.16;;;25.93;13.46
14293;BME280;62290;59.420;17.842;2023-04-02T02:14:22;101973.41;;;25.93;13.68
14293;BME280;62290;59.420;17.842;2023-04-02T02:16:53;101958.53;;;25.88;13.82
14293;BME280;62290;59.420;17.842;2023-04-02T02:19:26;101977.81;;;25.94;13.87
14293;BME280;62290;59.420;17.842;2023-04-02T02:21:56;101959.63;;;25.85;13.60
14293;BME280;62290;59.420;17.842;2023-04-02T02:24:31;101990.25;;;25.97;13.84
14293;BME280;62290;59.420;17.842;2023-04-02T02:27:10;101988.28;;;25.99;13.84
14293;BME280;62290;59.420;17.842;2023-04-02T02:29:45;101992.81;;;25.98;13.82
14293;BME280;62290;59.420;17.842;2023-04-02T02:32:17;101989.16;;;25.99;13.83
14293;BME280;62290;59.420;17.842;2023-04-02T02:34:48;101993.56;;;26.00;13.83
14293;BME280;62290;59.420;17.842;2023-04-02T02:37:25;101981.63;;;25.92;13.71
14293;BME280;62290;59.420;17.842;2023-04-02T02:39:57;101998.22;;;25.98;13.54
14293;BME280;62290;59.420;17.842;2023-04-02T02:42:29;102003.25;;;26.03;13.28
14293;BME280;62290;59.420;17.842;2023-04-02T02:45:04;102006.69;;;26.05;13.82
14293;BME280;62290;59.420;17.842;2023-04-02T02:47:35;102009.31;;;26.06;13.74
14293;BME280;62290;59.420;17.842;2023-04-02T02:50:15;102015.56;;;26.07;13.36
14293;BME280;62290;59.420;17.842;2023-04-02T02:52:49;102021.81;;;26.07;13.35
14293;BME280;62290;59.420;17.842;2023-04-02T02:55:21;102025.38;;;26.08;13.39
14293;BME280;62290;59.420;17.842;2023-04-02T02:58:16;102023.69;;;26.07;13.79
14293;BME280;62290;59.420;17.842;2023-04-02T03:00:57;102024.66;;;26.06;13.32
14293;BME280;62290;59.420;17.842;2023-04-02T03:03:29;102033.63;;;26.06;13.74
14293;BME280;62290;59.420;17.842;2023-04-02T03:06:03;102033.84;;;26.03;13.17
14293;BME280;62290;59.420;17.842;2023-04-02T03:08:36;102045.16;;;26.08;13.67
14293;BME280;62290;59.420;17.842;2023-04-02T03:11:11;102040.72;;;26.07;13.25
14293;BME280;62290;59.420;17.842;2023-04-02T03:13:45;102041.22;;;26.01;13.50
14293;BME280;62290;59.420;17.842;2023-04-02T03:16:22;102052.41;;;26.08;13.50
14293;BME280;62290;59.420;17.842;2023-04-02T03:18:57;102055.00;;;26.09;13.69
14293;BME280;62290;59.420;17.842;2023-04-02T03:21:33;102060.63;;;26.06;13.41
14293;BME280;62290;59.420;17.842;2023-04-02T03:24:09;102055.00;;;26.09;13.68
14293;BME280;62290;59.420;17.842;2023-04-02T03:26:41;102067.75;;;26.07;13.08
14293;BME280;62290;59.420;17.842;2023-04-02T03:29:15;102078.31;;;26.10;13.67
14293;BME280;62290;59.420;17.842;2023-04-02T03:31:47;102082.75;;;26.11;13.54
14293;BME280;62290;59.420;17.842;2023-04-02T03:34:21;102080.06;;;26.11;13.22
14293;BME280;62290;59.420;17.842;2023-04-02T03:36:56;102087.28;;;26.11;13.38
14293;BME280;62290;59.420;17.842;2023-04-02T03:39:30;102083.72;;;26.10;13.12
14293;BME280;62290;59.420;17.842;2023-04-02T03:42:04;102096.25;;;26.11;13.22
14293;BME280;62290;59.420;17.842;2023-04-02T03:44:38;102100.81;;;26.11;13.56
14293;BME280;62290;59.420;17.842;2023-04-02T03:47:17;102107.94;;;26.12;13.17
14293;BME280;62290;59.420;17.842;2023-04-02T03:49:49;102111.53;;;26.12;13.56
14293;BME280;62290;59.420;17.842;2023-04-02T03:52:24;102114.44;;;26.09;13.24
14293;BME280;62290;59.420;17.842;2023-04-02T03:54:55;102115.06;;;26.13;13.14
14293;BME280;62290;59.420;17.842;2023-04-02T03:57:28;102121.44;;;26.12;12.93
14293;BME280;62290;59.420;17.842;2023-04-02T04:00:03;102116.38;;;26.07;13.13
14293;BME280;62290;59.420;17.842;2023-04-02T04:02:43;102125.06;;;26.12;13.49
14293;BME280;62290;59.420;17.842;2023-04-02T04:05:25;102134.97;;;26.12;13.44
14293;BME280;62290;59.420;17.842;2023-04-02T04:08:00;102127.81;;;26.11;12.98
14293;BME280;62290;59.420;17.842;2023-04-02T04:10:30;102129.56;;;26.12;12.90
14293;BME280;62290;59.420;17.842;2023-04-02T04:13:03;102135.84;;;26.12;13.35
14293;BME280;62290;59.420;17.842;2023-04-02T04:15:35;102145.78;;;26.12;13.01
14293;BME280;62290;59.420;17.842;2023-04-02T04:18:10;102149.38;;;26.12;13.37
14293;BME280;62290;59.420;17.842;2023-04-02T04:20:49;102150.31;;;26.11;13.31
14293;BME280;62290;59.420;17.842;2023-04-02T04:23:29;102155.72;;;26.11;13.33
14293;BME280;62290;59.420;17.842;2023-04-02T04:26:04;102158.41;;;26.11;13.24
14293;BME280;62290;59.420;17.842;2023-04-02T04:28:43;102151.50;;;26.07;13.30
14293;BME280;62290;59.420;17.842;2023-04-02T04:31:18;102163.06;;;26.09;12.94
14293;BME280;62290;59.420;17.842;2023-04-02T04:33:54;102152.34;;;25.97;13.40
14293;BME280;62290;59.420;17.842;2023-04-02T04:36:32;102172.16;;;26.08;13.12
14293;BME280;62290;59.420;17.842;2023-04-02T04:39:15;102179.50;;;26.06;13.41
14293;BME280;62290;59.420;17.842;2023-04-02T04:41:48;102181.34;;;26.06;13.04
14293;BME280;62290;59.420;17.842;2023-04-02T04:44:22;102173.47;;;26.03;13.43
14293;BME280;62290;59.420;17.842;2023-04-02T04:46:58;102186.75;;;26.06;13.04
14293;BME280;62290;59.420;17.842;2023-04-02T04:49:33;102187.63;;;26.06;13.54
14293;BME280;62290;59.420;17.842;2023-04-02T04:52:07;102192.88;;;26.08;13.04
14293;BME280;62290;59.420;17.842;2023-04-02T04:54:39;102193.88;;;26.07;13.14
14293;BME280;62290;59.420;17.842;2023-04-02T04:57:22;102200.47;;;26.03;13.32
14293;BME280;62290;59.420;17.842;2023-04-02T04:59:57;102211.81;;;26.08;13.19
14293;BME280;62290;59.420;17.842;2023-04-02T05:02:33;102209.09;;;26.08;13.54
14293;BME280;62290;59.420;17.842;2023-04-02T05:05:15;102210.84;;;26.09;13.50
14293;BME280;62290;59.420;17.842;2023-04-02T05:07:50;102220.66;;;26.10;13.52
14293;BME280;62290;59.420;17.842;2023-04-02T05:10:24;102217.00;;;26.11;13.41
14293;BME280;62290;59.420;17.842;2023-04-02T05:13:00;102218.81;;;26.10;13.17
14293;BME280;62290;59.420;17.842;2023-04-02T05:15:35;102227.72;;;26.12;13.38
14293;BME280;62290;59.420;17.842;2023-04-02T05:18:22;102226.72;;;26.13;13.39
14293;BME280;62290;59.420;17.842;2023-04-02T05:20:58;102234.84;;;26.13;12.91
14293;BME280;62290;59.420;17.842;2023-04-02T05:23:29;102231.38;;;26.11;13.02
14293;BME280;62290;59.420;17.842;2023-04-02T05:26:07;102234.16;;;26.10;13.01
14293;BME280;62290;59.420;17.842;2023-04-02T05:28:42;102234.84;;;26.13;12.81
14293;BME280;62290;59.420;17.842;2023-04-02T05:31:15;102228.16;;;26.06;13.04
14293;BME280;62290;59.420;17.842;2023-04-02T05:33:47;102239.38;;;26.13;13.29
14293;BME280;62290;59.420;17.842;2023-04-02T05:36:21;102245.66;;;26.13;12.97
14293;BME280;62290;59.420;17.842;2023-04-02T05:38:54;102245.75;;;26.12;12.95
14293;BME280;62290;59.420;17.842;2023-04-02T05:41:38;102225.78;;;26.02;13.34
14293;BME280;62290;59.420;17.842;2023-04-02T05:44:13;102252.78;;;26.14;13.12
14293;BME280;62290;59.420;17.842;2023-04-02T05:46:46;102255.59;;;26.13;12.84
14293;BME280;62290;59.420;17.842;2023-04-02T05:49:24;102265.44;;;26.14;13.23
14293;BME280;62290;59.420;17.842;2023-04-02T05:51:57;102260.91;;;26.14;13.00
14293;BME280;62290;59.420;17.842;2023-04-02T05:54:30;102261.66;;;26.16;12.99
14293;BME280;62290;59.420;17.842;2023-04-02T05:57:02;102265.31;;;26.15;12.78
14293;BME280;62290;59.420;17.842;2023-04-02T05:59:36;102264.56;;;26.13;12.79
14293;BME280;62290;59.420;17.842;2023-04-02T06:02:16;102277.63;;;26.19;13.01
14293;BME280;62290;59.420;17.842;2023-04-02T06:04:51;102269.00;;;26.14;12.88
14293;BME280;62290;59.420;17.842;2023-04-02T06:07:28;102266.31;;;26.14;12.53
14293;BME280;62290;59.420;17.842;2023-04-02T06:10:03;102280.22;;;26.21;12.39
14293;BME280;62290;59.420;17.842;2023-04-02T06:12:39;102288.22;;;26.22;12.62
14293;BME280;62290;59.420;17.842;2023-04-02T06:15:11;102291.75;;;26.23;12.74
14293;BME280;62290;59.420;17.842;2023-04-02T06:17:45;102293.38;;;26.25;12.31
14293;BME280;62290;59.420;17.842;2023-04-02T06:20:16;102303.13;;;26.28;12.43
14293;BME280;62290;59.420;17.842;2023-04-02T06:22:47;102273.19;;;26.18;12.74
14293;BME280;62290;59.420;17.842;2023-04-02T06:25:21;102302.66;;;26.34;12.23
14293;BME280;62290;59.420;17.842;2023-04-02T06:27:53;102308.06;;;26.34;12.16
14293;BME280;62290;59.420;17.842;2023-04-02T06:30:26;102311.41;;;26.38;12.06
14293;BME280;62290;59.420;17.842;2023-04-02T06:32:55;102310.41;;;26.38;12.06
14293;BME280;62290;59.420;17.842;2023-04-02T06:35:25;102315.59;;;26.42;12.33
14293;BME280;62290;59.420;17.842;2023-04-02T06:38:00;102318.06;;;26.45;12.35
14293;BME280;62290;59.420;17.842;2023-04-02T06:40:38;102314.28;;;26.47;12.46
14293;BME280;62290;59.420;17.842;2023-04-02T06:43:39;102322.50;;;26.46;12.41
14293;BME280;62290;59.420;17.842;2023-04-02T06:46:22;102329.41;;;26.50;12.23
14293;BME280;62290;59.420;17.842;2023-04-02T06:49:13;102337.28;;;26.53;12.49
14293;BME280;62290;59.420;17.842;2023-04-02T06:51:45;102337.16;;;26.54;12.47
14293;BME280;62290;59.420;17.842;2023-04-02T06:54:17;102348.63;;;26.58;12.40
14293;BME280;62290;59.420;17.842;2023-04-02T06:56:52;102340.50;;;26.58;12.62
14293;BME280;62290;59.420;17.842;2023-04-02T06:59:42;102312.28;;;26.38;12.61
14293;BME280;62290;59.420;17.842;2023-04-02T07:02:25;102341.16;;;26.61;12.75
14293;BME280;62290;59.420;17.842;2023-04-02T07:05:00;102335.84;;;26.60;12.34
14293;BME280;62290;59.420;17.842;2023-04-02T07:07:30;102342.03;;;26.62;12.50
14293;BME280;62290;59.420;17.842;2023-04-02T07:10:03;102351.84;;;26.63;12.52
14293;BME280;62290;59.420;17.842;2023-04-02T07:12:32;102354.56;;;26.63;12.81
14293;BME280;62290;59.420;17.842;2023-04-02T07:15:01;102355.28;;;26.65;12.86
14293;BME280;62290;59.420;17.842;2023-04-02T07:17:29;102352.59;;;26.65;12.49
14293;BME280;62290;59.420;17.842;2023-04-02T07:19:58;102359.72;;;26.66;12.52
14293;BME280;62290;59.420;17.842;2023-04-02T07:22:26;102333.63;;;26.54;12.92
14293;BME280;62290;59.420;17.842;2023-04-02T07:24:57;102362.00;;;26.72;12.84
14293;BME280;62290;59.420;17.842;2023-04-02T07:27:27;102367.16;;;26.75;13.00
14293;BME280;62290;59.420;17.842;2023-04-02T07:29:55;102375.94;;;26.78;12.65
14293;BME280;62290;59.420;17.842;2023-04-02T07:32:23;102372.13;;;26.81;13.12
14293;BME280;62290;59.420;17.842;2023-04-02T07:34:51;102348.47;;;26.72;12.97
14293;BME280;62290;59.420;17.842;2023-04-02T07:37:19;102377.09;;;26.87;12.79
14293;BME280;62290;59.420;17.842;2023-04-02T07:39:47;102373.16;;;26.91;13.05
14293;BME280;62290;59.420;17.842;2023-04-02T07:42:15;102379.34;;;26.93;12.96
14293;BME280;62290;59.420;17.842;2023-04-02T07:44:44;102380.94;;;26.95;13.21
14293;BME280;62290;59.420;17.842;2023-04-02T07:47:12;102386.25;;;26.97;12.96
14293;BME280;62290;59.420;17.842;2023-04-02T07:49:41;102393.13;;;27.01;13.01
14293;BME280;62290;59.420;17.842;2023-04-02T07:52:10;102388.47;;;27.03;13.26
14293;BME280;62290;59.420;17.842;2023-04-02T07:54:38;102382.31;;;27.01;12.95
14293;BME280;62290;59.420;17.842;2023-04-02T07:57:06;102402.53;;;27.08;12.88
14293;BME280;62290;59.420;17.842;2023-04-02T07:59:34;102405.00;;;27.11;13.51
14293;BME280;62290;59.420;17.842;2023-04-02T08:02:03;102415.56;;;27.14;13.09
14293;BME280;62290;59.420;17.842;2023-04-02T08:04:32;102415.34;;;27.17;12.94
14293;BME280;62290;59.420;17.842;2023-04-02T08:07:00;102415.13;;;27.20;13.17
14293;BME280;62290;59.420;17.842;2023-04-02T08:09:28;102415.84;;;27.22;13.16
14293;BME280;62290;59.420;17.842;2023-04-02T08:11:56;102422.03;;;27.24;13.19
14293;BME280;62290;59.420;17.842;2023-04-02T08:14:24;102423.75;;;27.25;13.10
14293;BME280;62290;59.420;17.842;2023-04-02T08:16:53;102426.22;;;27.28;13.16
14293;BME280;62290;59.420;17.842;2023-04-02T08:19:23;102423.38;;;27.30;13.16
14293;BME280;62290;59.420;17.842;2023-04-02T08:21:52;102436.81;;;27.31;13.28
14293;BME280;62290;59.420;17.842;2023-04-02T08:24:20;102408.97;;;27.18;13.65
14293;BME280;62290;59.420;17.842;2023-04-02T08:26:49;102431.19;;;27.34;13.26
14293;BME280;62290;59.420;17.842;2023-04-02T08:29:17;102445.44;;;27.36;13.28
14293;BME280;62290;59.420;17.842;2023-04-02T08:31:45;102433.13;;;27.32;13.36
14293;BME280;62290;59.420;17.842;2023-04-02T08:34:13;102447.97;;;27.39;13.51
14293;BME280;62290;59.420;17.842;2023-04-02T08:36:43;102456.81;;;27.41;13.51
14293;BME280;62290;59.420;17.842;2023-04-02T08:39:12;102453.25;;;27.41;13.46
14293;BME280;62290;59.420;17.842;2023-04-02T08:41:43;102462.00;;;27.44;13.58
14293;BME280;62290;59.420;17.842;2023-04-02T08:44:34;102463.72;;;27.45;13.62
14293;BME280;62290;59.420;17.842;2023-04-02T08:47:06;102462.88;;;27.45;13.80
14293;BME280;62290;59.420;17.842;2023-04-02T08:49:39;102466.44;;;27.45;13.64
14293;BME280;62290;59.420;17.842;2023-04-02T08:52:19;102463.63;;;27.47;13.62
14293;BME280;62290;59.420;17.842;2023-04-02T08:54:49;102467.28;;;27.46;13.76
14293;BME280;62290;59.420;17.842;2023-04-02T08:57:26;102451.59;;;27.38;13.69
14293;BME280;62290;59.420;17.842;2023-04-02T09:00:00;102469.25;;;27.44;13.60
14293;BME280;62290;59.420;17.842;2023-04-02T09:02:36;102481.84;;;27.45;13.74
14293;BME280;62290;59.420;17.842;2023-04-02T09:05:14;102487.25;;;27.45;13.72
14293;BME280;62290;59.420;17.842;2023-04-02T09:07:46;102489.19;;;27.43;13.72
14293;BME280;62290;59.420;17.842;2023-04-02T09:10:16;102500.16;;;27.41;13.95
14293;BME280;62290;59.420;17.842;2023-04-02T09:12:50;102506.31;;;27.43;13.79
14293;BME280;62290;59.420;17.842;2023-04-02T09:15:22;102510.97;;;27.41;13.92
14293;BME280;62290;59.420;17.842;2023-04-02T09:17:59;102511.94;;;27.40;14.14
14293;BME280;62290;59.420;17.842;2023-04-02T09:20:31;102512.94;;;27.39;14.02
14293;BME280;62290;59.420;17.842;2023-04-02T09:23:00;102519.22;;;27.40;13.83
14293;BME280;62290;59.420;17.842;2023-04-02T09:25:29;102499.31;;;27.28;13.91
14293;BME280;62290;59.420;17.842;2023-04-02T09:28:00;102523.00;;;27.37;13.95
14293;BME280;62290;59.420;17.842;2023-04-02T09:30:39;102524.72;;;27.38;14.14
14293;BME280;62290;59.420;17.842;2023-04-02T09:33:10;102521.41;;;27.35;14.11
14293;BME280;62290;59.420;17.842;2023-04-02T09:35:54;102526.69;;;27.36;13.92
14293;BME280;62290;59.420;17.842;2023-04-02T09:38:25;102526.69;;;27.36;14.10
14293;BME280;62290;59.420;17.842;2023-04-02T09:40:58;102538.38;;;27.37;14.02
14293;BME280;62290;59.420;17.842;2023-04-02T09:43:29;102513.81;;;27.27;14.42
14293;BME280;62290;59.420;17.842;2023-04-02T09:45:59;102512.72;;;27.30;14.95
14293;BME280;62290;59.420;17.842;2023-04-02T09:48:30;102469.16;;;26.98;15.45
14293;BME280;62290;59.420;17.842;2023-04-02T09:51:11;102535.53;;;27.38;16.67
14293;BME280;62290;59.420;17.842;2023-04-02T09:53:42;102546.38;;;27.38;18.61
14293;BME280;62290;59.420;17.842;2023-04-02T09:56:17;102522.13;;;27.37;20.67
14293;BME280;62290;59.420;17.842;2023-04-02T09:59:01;102538.81;;;27.43;21.76
14293;BME280;62290;59.420;17.842;2023-04-02T10:01:31;102546.69;;;27.46;22.60
14293;BME280;62290;59.420;17.842;2023-04-02T10:04:01;102534.03;;;27.47;22.93
14293;BME280;62290;59.420;17.842;2023-04-02T10:06:30;102545.72;;;27.47;22.66
14293;BME280;62290;59.420;17.842;2023-04-02T10:09:18;102549.19;;;27.49;22.75
14293;BME280;62290;59.420;17.842;2023-04-02T10:11:47;102546.56;;;27.48;23.75
14293;BME280;62290;59.420;17.842;2023-04-02T10:14:18;102555.56;;;27.48;24.40
14293;BME280;62290;59.420;17.842;2023-04-02T10:16:49;102572.22;;;27.55;25.25
14293;BME280;62290;59.420;17.842;2023-04-02T10:19:24;102572.22;;;27.55;24.87
14293;BME280;62290;59.420;17.842;2023-04-02T10:21:57;102558.41;;;27.47;24.46
14293;BME280;62290;59.420;17.842;2023-04-02T10:24:27;102584.03;;;27.54;24.01
14293;BME280;62290;59.420;17.842;2023-04-02T10:27:00;102589.34;;;27.55;23.31
14293;BME280;62290;59.420;17.842;2023-04-02T10:29:41;102581.22;;;27.55;22.69
14293;BME280;62290;59.420;17.842;2023-04-02T10:32:15;102587.47;;;27.56;22.48
14293;BME280;62290;59.420;17.842;2023-04-02T10:34:51;102592.06;;;27.55;21.72
14293;BME280;62290;59.420;17.842;2023-04-02T10:37:48;102594.78;;;27.55;21.37
14293;BME280;62290;59.420;17.842;2023-04-02T10:40:25;102593.16;;;27.53;21.12
14293;BME280;62290;59.420;17.842;2023-04-02T10:43:04;102605.69;;;27.54;20.77
14293;BME280;62290;59.420;17.842;2023-04-02T10:45:39;102604.84;;;27.53;20.50
14293;BME280;62290;59.420;17.842;2023-04-02T10:48:13;102624.78;;;27.52;20.59
14293;BME280;62290;59.420;17.842;2023-04-02T10:50:48;102618.38;;;27.53;20.28
14293;BME280;62290;59.420;17.842;2023-04-02T10:53:26;102623.69;;;27.55;20.08
14293;BME280;62290;59.420;17.842;2023-04-02T10:56:04;102621.00;;;27.55;19.61
14293;BME280;62290;59.420;17.842;2023-04-02T10:58:37;102625.53;;;27.54;19.58
14293;BME280;62290;59.420;17.842;2023-04-02T11:01:13;102556.66;;;27.10;19.44
14293;BME280;62290;59.420;17.842;2023-04-02T11:03:45;102605.88;;;27.40;18.83
14293;BME280;62290;59.420;17.842;2023-04-02T11:06:21;102633.66;;;27.54;18.49
14293;BME280;62290;59.420;17.842;2023-04-02T11:08:54;102638.31;;;27.52;18.00
14293;BME280;62290;59.420;17.842;2023-04-02T11:11:28;102644.84;;;27.50;17.83
14293;BME280;62290;59.420;17.842;2023-04-02T11:13:59;102642.22;;;27.48;17.53
14293;BME280;62290;59.420;17.842;2023-04-02T11:16:28;102656.78;;;27.47;17.37
14293;BME280;62290;59.420;17.842;2023-04-02T11:19:22;102669.22;;;27.50;17.27
14293;BME280;62290;59.420;17.842;2023-04-02T11:21:51;102659.91;;;27.41;17.30
14293;BME280;62290;59.420;17.842;2023-04-02T11:24:35;102674.72;;;27.48;16.93
14293;BME280;62290;59.420;17.842;2023-04-02T11:27:12;102669.53;;;27.33;16.65
14293;BME280;62290;59.420;17.842;2023-04-02T11:29:44;102683.06;;;27.45;16.64
14293;BME280;62290;59.420;17.842;2023-04-02T11:32:32;102690.44;;;27.43;16.10
14293;BME280;62290;59.420;17.842;2023-04-02T11:37:54;102691.09;;;27.34;15.95
14293;BME280;62290;59.420;17.842;2023-04-02T11:40:47;102702.81;;;27.35;16.02
14293;BME280;62290;59.420;17.842;2023-04-02T11:43:47;102705.59;;;27.33;16.06
14293;BME280;62290;59.420;17.842;2023-04-02T11:46:44;102714.06;;;27.29;15.53
14293;BME280;62290;59.420;17.842;2023-04-02T11:49:55;102722.28;;;27.27;15.64
14293;BME280;62290;59.420;17.842;2023-04-02T11:52:26;102712.66;;;27.23;15.66
14293;BME280;62290;59.420;17.842;2023-04-02T12:09:56;102731.84;;;27.08;16.27
14293;BME280;62290;59.420;17.842;2023-04-02T12:12:26;102739.41;;;27.15;16.17
14293;BME280;62290;59.420;17.842;2023-04-02T12:14:56;102744.81;;;27.15;16.53
14293;BME280;62290;59.420;17.842;2023-04-02T12:17:30;102749.28;;;27.16;16.48
14293;BME280;62290;59.420;17.842;2023-04-02T12:20:02;102748.41;;;27.16;16.40
14293;BME280;62290;59.420;17.842;2023-04-02T12:22:37;102751.22;;;27.14;16.56
14293;BME280;62290;59.420;17.842;2023-04-02T12:25:20;102752.19;;;27.13;16.68
14293;BME280;62290;59.420;17.842;2023-04-02T12:28:03;102743.75;;;27.05;16.52
14293;BME280;62290;59.420;17.842;2023-04-02T12:30:31;102749.38;;;27.15;16.50
14293;BME280;62290;59.420;17.842;2023-04-02T12:33:15;102749.38;;;27.15;15.98
14293;BME280;62290;59.420;17.842;2023-04-02T12:35:45;102761.28;;;27.12;15.92
14293;BME280;62290;59.420;17.842;2023-04-02T12:38:19;102748.75;;;27.11;15.75
14293;BME280;62290;59.420;17.842;2023-04-02T12:40:52;102757.81;;;27.10;15.77
14293;BME280;62290;59.420;17.842;2023-04-02T12:43:27;102764.19;;;27.09;15.73
14293;BME280;62290;59.420;17.842;2023-04-02T12:45:58;102763.38;;;27.09;15.27
14293;BME280;62290;59.420;17.842;2023-04-02T12:48:28;102767.78;;;27.10;15.43
14293;BME280;62290;59.420;17.842;2023-04-02T12:50:58;102756.19;;;27.08;15.25
14293;BME280;62290;59.420;17.842;2023-04-02T12:53:31;102770.50;;;27.10;15.32
14293;BME280;62290;59.420;17.842;2023-04-02T12:56:01;102776.78;;;27.10;14.98
14293;BME280;62290;59.420;17.842;2023-04-02T12:58:31;102774.94;;;27.11;15.09
14293;BME280;62290;59.420;17.842;2023-04-02T13:01:14;102775.69;;;27.13;14.72
14293;BME280;62290;59.420;17.842;2023-04-02T13:04:02;102781.09;;;27.13;14.71
14293;BME280;62290;59.420;17.842;2023-04-02T13:06:32;102788.25;;;27.14;14.89
14293;BME280;62290;59.420;17.842;2023-04-02T13:09:03;102796.25;;;27.15;14.88
14293;BME280;62290;59.420;17.842;2023-04-02T13:11:33;102780.56;;;27.08;14.97
14293;BME280;62290;59.420;17.842;2023-04-02T13:14:04;102789.22;;;27.13;14.58
14293;BME280;62290;59.420;17.842;2023-04-02T13:16:33;102811.63;;;27.15;14.77
14293;BME280;62290;59.420;17.842;2023-04-02T13:19:24;102798.22;;;27.13;14.34
14293;BME280;62290;59.420;17.842;2023-04-02T13:21:53;102803.72;;;27.12;14.16
14293;BME280;62290;59.420;17.842;2023-04-02T13:24:23;102776.84;;;26.96;14.22
14293;BME280;62290;59.420;17.842;2023-04-02T13:26:54;102811.09;;;27.10;14.12
14293;BME280;62290;59.420;17.842;2023-04-02T13:29:25;102811.97;;;27.10;14.14
14293;BME280;62290;59.420;17.842;2023-04-02T13:31:56;102804.59;;;27.12;14.19
14293;BME280;62290;59.420;17.842;2023-04-02T13:34:26;102807.31;;;27.12;14.24
14293;BME280;62290;59.420;17.842;2023-04-02T13:36:55;102802.97;;;27.10;14.32